sensor_id;sensor_type;location;lat;lon;timestamp;P1;durP1;ratioP1;P2;durP2;ratioP2
18159;SDS011;9205;52.032;4.314;2023-06-14T00:00:05;6.30;;;2.13;;
18159;SDS011;9205;52.032;4.314;2023-06-14T00:02:35;4.93;;;2.20;;
18159;SDS011;9205;52.032;4.314;2023-06-14T00:05:07;2.87;;;2.30;;
18159;SDS011;9205;52.032;4.314;2023-06-14T00:07:37;3.77;;;2.23;;
18159;SDS011;9205;52.032;4.314;2023-06-14T00:10:09;2.63;;;2.13;;
18159;SDS011;9205;52.032;4.314;2023-06-14T00:12:39;3.53;;;2.27;;
18159;SDS011;9205;52.032;4.314;2023-06-14T00:15:09;3.07;;;2.10;;
18159;SDS011;9205;52.032;4.314;2023-06-14T00:17:39;3.07;;;2.00;;
18159;SDS011;9205;52.032;4.314;2023-06-14T00:20:07;4.30;;;2.10;;
18159;SDS011;9205;52.032;4.314;2023-06-14T00:22:40;5.17;;;2.37;;
18159;SDS011;9205;52.032;4.314;2023-06-14T00:25:08;3.97;;;2.40;;
18159;SDS011;9205;52.032;4.314;2023-06-14T00:27:40;2.50;;;1.90;;
18159;SDS011;9205;52.032;4.314;2023-06-14T00:30:10;4.90;;;2.63;;
18159;SDS011;9205;52.032;4.314;2023-06-14T00:32:42;4.00;;;2.33;;
18159;SDS011;9205;52.032;4.314;2023-06-14T00:35:10;3.83;;;2.37;;
18159;SDS011;9205;52.032;4.314;2023-06-14T00:37:38;4.43;;;2.53;;
18159;SDS011;9205;52.032;4.314;2023-06-14T00:40:09;5.00;;;2.43;;
18159;SDS011;9205;52.032;4.314;2023-06-14T00:42:37;4.63;;;2.27;;
18159;SDS011;9205;52.032;4.314;2023-06-14T00:45:07;3.00;;;2.10;;
18159;SDS011;9205;52.032;4.314;2023-06-14T00:47:36;5.63;;;2.50;;
18159;SDS011;9205;52.032;4.314;2023-06-14T00:50:09;3.57;;;2.60;;
18159;SDS011;9205;52.032;4.314;2023-06-14T00:52:39;5.60;;;2.57;;
18159;SDS011;9205;52.032;4.314;2023-06-14T00:55:08;3.57;;;2.10;;
18159;SDS011;9205;52.032;4.314;2023-06-14T00:57:36;4.37;;;2.50;;
18159;SDS011;9205;52.032;4.314;2023-06-14T01:00:07;3.53;;;2.30;;
18159;SDS011;9205;52.032;4.314;2023-06-14T01:02:37;3.30;;;2.00;;
18159;SDS011;9205;52.032;4.314;2023-06-14T01:05:08;4.10;;;2.10;;
18159;SDS011;9205;52.032;4.314;2023-06-14T01:07:51;4.70;;;2.73;;
18159;SDS011;9205;52.032;4.314;2023-06-14T01:10:38;3.87;;;2.30;;
18159;SDS011;9205;52.032;4.314;2023-06-14T01:13:23;4.03;;;2.50;;
18159;SDS011;9205;52.032;4.314;2023-06-14T01:15:58;4.47;;;2.10;;
18159;SDS011;9205;52.032;4.314;2023-06-14T01:18:29;2.83;;;2.10;;
18159;SDS011;9205;52.032;4.314;2023-06-14T01:20:57;4.17;;;2.67;;
18159;SDS011;9205;52.032;4.314;2023-06-14T01:23:26;3.20;;;2.10;;
18159;SDS011;9205;52.032;4.314;2023-06-14T01:25:58;3.23;;;2.20;;
18159;SDS011;9205;52.032;4.314;2023-06-14T01:28:30;5.27;;;2.30;;
18159;SDS011;9205;52.032;4.314;2023-06-14T01:31:00;3.50;;;2.20;;
18159;SDS011;9205;52.032;4.314;2023-06-14T01:33:30;5.20;;;2.50;;
18159;SDS011;9205;52.032;4.314;2023-06-14T01:36:00;4.33;;;2.40;;
18159;SDS011;9205;52.032;4.314;2023-06-14T01:38:33;5.67;;;2.60;;
18159;SDS011;9205;52.032;4.314;2023-06-14T01:41:08;4.87;;;2.53;;
18159;SDS011;9205;52.032;4.314;2023-06-14T01:43:37;4.10;;;2.20;;
18159;SDS011;9205;52.032;4.314;2023-06-14T01:46:08;4.27;;;2.40;;
18159;SDS011;9205;52.032;4.314;2023-06-14T01:48:37;6.07;;;2.33;;
18159;SDS011;9205;52.032;4.314;2023-06-14T01:51:05;2.83;;;2.23;;
18159;SDS011;9205;52.032;4.314;2023-06-14T01:53:34;4.23;;;2.63;;
18159;SDS011;9205;52.032;4.314;2023-06-14T01:56:03;3.27;;;2.37;;
18159;SDS011;9205;52.032;4.314;2023-06-14T01:58:31;5.83;;;2.43;;
18159;SDS011;9205;52.032;4.314;2023-06-14T02:01:02;4.73;;;1.97;;
18159;SDS011;9205;52.032;4.314;2023-06-14T02:03:32;3.00;;;2.10;;
18159;SDS011;9205;52.032;4.314;2023-06-14T02:06:07;3.97;;;2.40;;
18159;SDS011;9205;52.032;4.314;2023-06-14T02:08:37;7.77;;;2.60;;
18159;SDS011;9205;52.032;4.314;2023-06-14T02:11:05;3.47;;;2.30;;
18159;SDS011;9205;52.032;4.314;2023-06-14T02:13:34;3.00;;;2.30;;
18159;SDS011;9205;52.032;4.314;2023-06-14T02:16:02;3.80;;;2.10;;
18159;SDS011;9205;52.032;4.314;2023-06-14T02:18:30;4.37;;;2.20;;
18159;SDS011;9205;52.032;4.314;2023-06-14T02:20:58;2.83;;;1.97;;
18159;SDS011;9205;52.032;4.314;2023-06-14T02:23:26;5.30;;;2.47;;
18159;SDS011;9205;52.032;4.314;2023-06-14T02:26:00;4.57;;;2.37;;
18159;SDS011;9205;52.032;4.314;2023-06-14T02:28:29;4.13;;;2.47;;
18159;SDS011;9205;52.032;4.314;2023-06-14T02:30:59;2.60;;;2.17;;
18159;SDS011;9205;52.032;4.314;2023-06-14T02:33:27;7.17;;;2.37;;
18159;SDS011;9205;52.032;4.314;2023-06-14T02:35:55;3.13;;;2.20;;
18159;SDS011;9205;52.032;4.314;2023-06-14T02:38:25;5.50;;;2.43;;
18159;SDS011;9205;52.032;4.314;2023-06-14T02:40:55;4.43;;;2.47;;
18159;SDS011;9205;52.032;4.314;2023-06-14T02:43:28;3.87;;;2.33;;
18159;SDS011;9205;52.032;4.314;2023-06-14T02:45:57;5.00;;;2.33;;
18159;SDS011;9205;52.032;4.314;2023-06-14T02:48:25;5.63;;;2.40;;
18159;SDS011;9205;52.032;4.314;2023-06-14T02:50:52;2.97;;;2.07;;
18159;SDS011;9205;52.032;4.314;2023-06-14T02:53:24;5.40;;;2.00;;
18159;SDS011;9205;52.032;4.314;2023-06-14T02:55:55;3.27;;;2.10;;
18159;SDS011;9205;52.032;4.314;2023-06-14T02:58:24;3.00;;;2.10;;
18159;SDS011;9205;52.032;4.314;2023-06-14T03:00:53;6.00;;;2.90;;
18159;SDS011;9205;52.032;4.314;2023-06-14T03:03:22;5.23;;;2.57;;
18159;SDS011;9205;52.032;4.314;2023-06-14T03:05:53;3.77;;;2.00;;
18159;SDS011;9205;52.032;4.314;2023-06-14T03:08:31;4.30;;;2.40;;
18159;SDS011;9205;52.032;4.314;2023-06-14T03:11:07;5.53;;;2.43;;
18159;SDS011;9205;52.032;4.314;2023-06-14T03:13:37;3.77;;;2.00;;
18159;SDS011;9205;52.032;4.314;2023-06-14T03:16:06;4.17;;;2.23;;
18159;SDS011;9205;52.032;4.314;2023-06-14T03:18:36;3.07;;;2.30;;
18159;SDS011;9205;52.032;4.314;2023-06-14T03:21:05;3.47;;;2.20;;
18159;SDS011;9205;52.032;4.314;2023-06-14T03:23:40;3.53;;;2.13;;
18159;SDS011;9205;52.032;4.314;2023-06-14T03:26:13;3.87;;;2.33;;
18159;SDS011;9205;52.032;4.314;2023-06-14T03:28:46;6.07;;;1.93;;
18159;SDS011;9205;52.032;4.314;2023-06-14T03:31:15;4.80;;;2.03;;
18159;SDS011;9205;52.032;4.314;2023-06-14T03:33:45;6.67;;;2.23;;
18159;SDS011;9205;52.032;4.314;2023-06-14T03:36:13;2.87;;;2.00;;
18159;SDS011;9205;52.032;4.314;2023-06-14T03:38:41;3.60;;;2.23;;
18159;SDS011;9205;52.032;4.314;2023-06-14T03:41:09;5.07;;;2.17;;
18159;SDS011;9205;52.032;4.314;2023-06-14T03:43:38;3.03;;;2.10;;
18159;SDS011;9205;52.032;4.314;2023-06-14T03:46:08;3.40;;;2.00;;
18159;SDS011;9205;52.032;4.314;2023-06-14T03:48:39;6.20;;;2.23;;
18159;SDS011;9205;52.032;4.314;2023-06-14T03:51:07;2.53;;;2.00;;
18159;SDS011;9205;52.032;4.314;2023-06-14T03:53:38;5.53;;;2.20;;
18159;SDS011;9205;52.032;4.314;2023-06-14T03:56:06;3.47;;;2.23;;
18159;SDS011;9205;52.032;4.314;2023-06-14T03:58:40;3.93;;;2.30;;
18159;SDS011;9205;52.032;4.314;2023-06-14T04:01:09;4.63;;;2.30;;
18159;SDS011;9205;52.032;4.314;2023-06-14T04:03:37;7.70;;;2.40;;
18159;SDS011;9205;52.032;4.314;2023-06-14T04:06:06;4.93;;;2.57;;
18159;SDS011;9205;52.032;4.314;2023-06-14T04:08:34;5.40;;;2.00;;
18159;SDS011;9205;52.032;4.314;2023-06-14T04:11:10;3.40;;;2.07;;
18159;SDS011;9205;52.032;4.314;2023-06-14T04:13:40;2.77;;;2.07;;
18159;SDS011;9205;52.032;4.314;2023-06-14T04:16:11;3.93;;;1.90;;
18159;SDS011;9205;52.032;4.314;2023-06-14T04:18:38;8.63;;;2.23;;
18159;SDS011;9205;52.032;4.314;2023-06-14T04:21:06;8.50;;;2.37;;
18159;SDS011;9205;52.032;4.314;2023-06-14T04:23:34;5.63;;;2.30;;
18159;SDS011;9205;52.032;4.314;2023-06-14T04:26:03;3.53;;;2.10;;
18159;SDS011;9205;52.032;4.314;2023-06-14T04:28:31;3.97;;;2.03;;
18159;SDS011;9205;52.032;4.314;2023-06-14T04:31:02;3.60;;;2.07;;
18159;SDS011;9205;52.032;4.314;2023-06-14T04:33:33;5.97;;;2.00;;
18159;SDS011;9205;52.032;4.314;2023-06-14T04:36:08;5.53;;;2.13;;
18159;SDS011;9205;52.032;4.314;2023-06-14T04:38:38;6.17;;;2.10;;
18159;SDS011;9205;52.032;4.314;2023-06-14T04:41:08;5.30;;;2.03;;
18159;SDS011;9205;52.032;4.314;2023-06-14T04:43:37;4.30;;;1.93;;
18159;SDS011;9205;52.032;4.314;2023-06-14T04:46:06;3.60;;;1.97;;
18159;SDS011;9205;52.032;4.314;2023-06-14T04:48:39;3.50;;;2.20;;
18159;SDS011;9205;52.032;4.314;2023-06-14T04:51:09;5.10;;;1.97;;
18159;SDS011;9205;52.032;4.314;2023-06-14T04:53:38;3.70;;;2.00;;
18159;SDS011;9205;52.032;4.314;2023-06-14T04:56:06;4.77;;;2.03;;
18159;SDS011;9205;52.032;4.314;2023-06-14T04:58:34;3.83;;;2.20;;
18159;SDS011;9205;52.032;4.314;2023-06-14T05:01:03;3.33;;;1.97;;
18159;SDS011;9205;52.032;4.314;2023-06-14T05:03:31;4.57;;;2.30;;
18159;SDS011;9205;52.032;4.314;2023-06-14T05:06:01;5.73;;;2.20;;
18159;SDS011;9205;52.032;4.314;2023-06-14T05:08:30;3.27;;;2.00;;
18159;SDS011;9205;52.032;4.314;2023-06-14T05:10:57;4.00;;;2.20;;
18159;SDS011;9205;52.032;4.314;2023-06-14T05:13:25;3.87;;;1.90;;
18159;SDS011;9205;52.032;4.314;2023-06-14T05:15:54;3.47;;;2.10;;
18159;SDS011;9205;52.032;4.314;2023-06-14T05:18:22;4.80;;;2.00;;
18159;SDS011;9205;52.032;4.314;2023-06-14T05:20:51;4.70;;;2.10;;
18159;SDS011;9205;52.032;4.314;2023-06-14T05:23:21;4.13;;;2.40;;
18159;SDS011;9205;52.032;4.314;2023-06-14T05:25:49;6.00;;;2.63;;
18159;SDS011;9205;52.032;4.314;2023-06-14T05:28:17;8.20;;;2.50;;
18159;SDS011;9205;52.032;4.314;2023-06-14T05:30:46;4.03;;;2.00;;
18159;SDS011;9205;52.032;4.314;2023-06-14T05:33:13;5.37;;;2.10;;
18159;SDS011;9205;52.032;4.314;2023-06-14T05:35:41;4.27;;;2.40;;
18159;SDS011;9205;52.032;4.314;2023-06-14T05:38:10;4.27;;;2.10;;
18159;SDS011;9205;52.032;4.314;2023-06-14T05:40:39;4.00;;;2.30;;
18159;SDS011;9205;52.032;4.314;2023-06-14T05:43:07;5.60;;;2.63;;
18159;SDS011;9205;52.032;4.314;2023-06-14T05:45:35;4.03;;;2.60;;
18159;SDS011;9205;52.032;4.314;2023-06-14T05:48:04;3.10;;;2.07;;
18159;SDS011;9205;52.032;4.314;2023-06-14T05:50:33;5.00;;;2.37;;
18159;SDS011;9205;52.032;4.314;2023-06-14T05:53:01;3.70;;;2.33;;
18159;SDS011;9205;52.032;4.314;2023-06-14T05:55:29;3.27;;;2.10;;
18159;SDS011;9205;52.032;4.314;2023-06-14T05:57:59;4.10;;;2.10;;
18159;SDS011;9205;52.032;4.314;2023-06-14T06:00:27;9.13;;;2.33;;
18159;SDS011;9205;52.032;4.314;2023-06-14T06:03:02;3.53;;;2.20;;
18159;SDS011;9205;52.032;4.314;2023-06-14T06:05:33;4.27;;;2.30;;
18159;SDS011;9205;52.032;4.314;2023-06-14T06:08:02;4.00;;;2.20;;
18159;SDS011;9205;52.032;4.314;2023-06-14T06:10:31;4.90;;;1.90;;
18159;SDS011;9205;52.032;4.314;2023-06-14T06:13:03;2.90;;;1.83;;
18159;SDS011;9205;52.032;4.314;2023-06-14T06:15:36;3.93;;;2.10;;
18159;SDS011;9205;52.032;4.314;2023-06-14T06:18:04;3.60;;;1.90;;
18159;SDS011;9205;52.032;4.314;2023-06-14T06:20:33;5.57;;;2.43;;
18159;SDS011;9205;52.032;4.314;2023-06-14T06:23:03;5.93;;;2.43;;
18159;SDS011;9205;52.032;4.314;2023-06-14T06:25:33;2.27;;;1.70;;
18159;SDS011;9205;52.032;4.314;2023-06-14T06:28:03;3.77;;;2.20;;
18159;SDS011;9205;52.032;4.314;2023-06-14T06:30:40;4.53;;;2.00;;
18159;SDS011;9205;52.032;4.314;2023-06-14T06:33:07;2.77;;;2.00;;
18159;SDS011;9205;52.032;4.314;2023-06-14T06:35:35;4.03;;;2.10;;
18159;SDS011;9205;52.032;4.314;2023-06-14T06:38:03;2.97;;;2.10;;
18159;SDS011;9205;52.032;4.314;2023-06-14T06:40:30;3.43;;;2.13;;
18159;SDS011;9205;52.032;4.314;2023-06-14T06:42:58;3.10;;;2.20;;
18159;SDS011;9205;52.032;4.314;2023-06-14T06:45:28;3.87;;;2.10;;
18159;SDS011;9205;52.032;4.314;2023-06-14T06:47:56;5.03;;;2.10;;
18159;SDS011;9205;52.032;4.314;2023-06-14T06:50:23;5.07;;;1.93;;
18159;SDS011;9205;52.032;4.314;2023-06-14T06:52:56;2.97;;;1.87;;
18159;SDS011;9205;52.032;4.314;2023-06-14T06:55:24;3.37;;;1.97;;
18159;SDS011;9205;52.032;4.314;2023-06-14T06:57:52;3.23;;;2.50;;
18159;SDS011;9205;52.032;4.314;2023-06-14T07:00:23;3.40;;;2.17;;
18159;SDS011;9205;52.032;4.314;2023-06-14T07:02:52;4.83;;;2.83;;
18159;SDS011;9205;52.032;4.314;2023-06-14T07:05:25;4.60;;;2.17;;
18159;SDS011;9205;52.032;4.314;2023-06-14T07:07:53;3.73;;;2.33;;
18159;SDS011;9205;52.032;4.314;2023-06-14T07:10:20;3.30;;;2.20;;
18159;SDS011;9205;52.032;4.314;2023-06-14T07:12:49;2.93;;;2.20;;
18159;SDS011;9205;52.032;4.314;2023-06-14T07:15:17;8.97;;;2.40;;
18159;SDS011;9205;52.032;4.314;2023-06-14T07:17:45;5.80;;;2.20;;
18159;SDS011;9205;52.032;4.314;2023-06-14T07:20:14;4.83;;;2.00;;
18159;SDS011;9205;52.032;4.314;2023-06-14T07:22:42;3.70;;;2.20;;
18159;SDS011;9205;52.032;4.314;2023-06-14T07:25:10;2.97;;;2.27;;
18159;SDS011;9205;52.032;4.314;2023-06-14T07:27:40;4.83;;;2.30;;
18159;SDS011;9205;52.032;4.314;2023-06-14T07:30:08;3.80;;;2.13;;
18159;SDS011;9205;52.032;4.314;2023-06-14T07:32:37;4.93;;;2.30;;
18159;SDS011;9205;52.032;4.314;2023-06-14T07:35:05;7.30;;;2.50;;
18159;SDS011;9205;52.032;4.314;2023-06-14T07:37:43;4.77;;;2.40;;
18159;SDS011;9205;52.032;4.314;2023-06-14T07:40:12;5.00;;;2.37;;
18159;SDS011;9205;52.032;4.314;2023-06-14T07:42:43;4.37;;;2.20;;
18159;SDS011;9205;52.032;4.314;2023-06-14T07:45:11;3.17;;;2.27;;
18159;SDS011;9205;52.032;4.314;2023-06-14T07:47:40;3.70;;;2.27;;
18159;SDS011;9205;52.032;4.314;2023-06-14T07:50:09;5.17;;;2.20;;
18159;SDS011;9205;52.032;4.314;2023-06-14T07:52:40;4.53;;;2.47;;
18159;SDS011;9205;52.032;4.314;2023-06-14T07:55:09;4.77;;;2.10;;
18159;SDS011;9205;52.032;4.314;2023-06-14T07:57:37;2.33;;;2.03;;
18159;SDS011;9205;52.032;4.314;2023-06-14T08:00:05;4.57;;;2.43;;
18159;SDS011;9205;52.032;4.314;2023-06-14T08:02:39;5.87;;;2.67;;
18159;SDS011;9205;52.032;4.314;2023-06-14T08:05:07;5.90;;;2.63;;
18159;SDS011;9205;52.032;4.314;2023-06-14T08:07:37;4.40;;;2.40;;
18159;SDS011;9205;52.032;4.314;2023-06-14T08:10:08;3.47;;;2.50;;
18159;SDS011;9205;52.032;4.314;2023-06-14T08:12:38;8.13;;;2.60;;
18159;SDS011;9205;52.032;4.314;2023-06-14T08:15:06;5.63;;;2.50;;
18159;SDS011;9205;52.032;4.314;2023-06-14T08:17:35;4.30;;;2.20;;
18159;SDS011;9205;52.032;4.314;2023-06-14T08:20:03;3.77;;;2.37;;
18159;SDS011;9205;52.032;4.314;2023-06-14T08:22:33;5.90;;;2.77;;
18159;SDS011;9205;52.032;4.314;2023-06-14T08:25:03;3.60;;;2.37;;
18159;SDS011;9205;52.032;4.314;2023-06-14T08:27:36;4.20;;;2.17;;
18159;SDS011;9205;52.032;4.314;2023-06-14T08:30:06;5.90;;;2.70;;
18159;SDS011;9205;52.032;4.314;2023-06-14T08:32:37;3.57;;;2.30;;
18159;SDS011;9205;52.032;4.314;2023-06-14T08:35:08;4.83;;;2.60;;
18159;SDS011;9205;52.032;4.314;2023-06-14T08:37:40;3.80;;;2.83;;
18159;SDS011;9205;52.032;4.314;2023-06-14T08:40:17;4.67;;;2.73;;
18159;SDS011;9205;52.032;4.314;2023-06-14T08:42:48;3.30;;;2.47;;
18159;SDS011;9205;52.032;4.314;2023-06-14T08:45:21;5.97;;;2.40;;
18159;SDS011;9205;52.032;4.314;2023-06-14T08:47:50;3.30;;;2.27;;
18159;SDS011;9205;52.032;4.314;2023-06-14T08:50:23;3.03;;;2.20;;
18159;SDS011;9205;52.032;4.314;2023-06-14T08:52:56;5.90;;;2.13;;
18159;SDS011;9205;52.032;4.314;2023-06-14T08:55:30;5.43;;;2.37;;
18159;SDS011;9205;52.032;4.314;2023-06-14T08:58:01;4.07;;;2.50;;
18159;SDS011;9205;52.032;4.314;2023-06-14T09:00:31;4.47;;;2.60;;
18159;SDS011;9205;52.032;4.314;2023-06-14T09:03:15;3.60;;;2.40;;
18159;SDS011;9205;52.032;4.314;2023-06-14T09:05:42;5.27;;;2.87;;
18159;SDS011;9205;52.032;4.314;2023-06-14T09:08:11;4.43;;;2.27;;
18159;SDS011;9205;52.032;4.314;2023-06-14T09:10:40;4.50;;;2.47;;
18159;SDS011;9205;52.032;4.314;2023-06-14T09:13:08;4.10;;;2.57;;
18159;SDS011;9205;52.032;4.314;2023-06-14T09:15:36;3.07;;;2.23;;
18159;SDS011;9205;52.032;4.314;2023-06-14T09:18:09;3.73;;;2.50;;
18159;SDS011;9205;52.032;4.314;2023-06-14T09:20:39;5.77;;;2.57;;
18159;SDS011;9205;52.032;4.314;2023-06-14T09:23:07;3.90;;;2.20;;
18159;SDS011;9205;52.032;4.314;2023-06-14T09:25:45;3.83;;;2.50;;
18159;SDS011;9205;52.032;4.314;2023-06-14T09:28:16;3.40;;;1.90;;
18159;SDS011;9205;52.032;4.314;2023-06-14T09:30:47;2.43;;;2.10;;
18159;SDS011;9205;52.032;4.314;2023-06-14T09:33:17;6.17;;;2.40;;
18159;SDS011;9205;52.032;4.314;2023-06-14T09:35:46;5.80;;;2.47;;
18159;SDS011;9205;52.032;4.314;2023-06-14T09:38:19;4.10;;;2.30;;
18159;SDS011;9205;52.032;4.314;2023-06-14T09:40:51;2.63;;;2.10;;
18159;SDS011;9205;52.032;4.314;2023-06-14T09:43:20;3.60;;;2.20;;
18159;SDS011;9205;52.032;4.314;2023-06-14T09:45:51;3.27;;;2.30;;
18159;SDS011;9205;52.032;4.314;2023-06-14T09:48:22;3.80;;;2.20;;
18159;SDS011;9205;52.032;4.314;2023-06-14T09:50:55;3.10;;;2.33;;
18159;SDS011;9205;52.032;4.314;2023-06-14T09:53:26;2.80;;;1.80;;
18159;SDS011;9205;52.032;4.314;2023-06-14T09:56:04;5.40;;;2.10;;
18159;SDS011;9205;52.032;4.314;2023-06-14T09:58:39;3.30;;;2.33;;
18159;SDS011;9205;52.032;4.314;2023-06-14T10:01:11;3.67;;;2.37;;
18159;SDS011;9205;52.032;4.314;2023-06-14T10:03:40;4.60;;;2.07;;
18159;SDS011;9205;52.032;4.314;2023-06-14T10:06:11;2.72;;;1.90;;
18159;SDS011;9205;52.032;4.314;2023-06-14T10:08:39;2.60;;;2.17;;
18159;SDS011;9205;52.032;4.314;2023-06-14T10:11:13;2.90;;;2.13;;
18159;SDS011;9205;52.032;4.314;2023-06-14T10:13:44;3.45;;;2.10;;
18159;SDS011;9205;52.032;4.314;2023-06-14T10:16:17;2.33;;;1.80;;
18159;SDS011;9205;52.032;4.314;2023-06-14T10:19:06;3.88;;;2.00;;
18159;SDS011;9205;52.032;4.314;2023-06-14T10:21:46;2.50;;;1.80;;
18159;SDS011;9205;52.032;4.314;2023-06-14T10:24:25;2.72;;;1.80;;
18159;SDS011;9205;52.032;4.314;2023-06-14T10:27:00;2.80;;;2.13;;
18159;SDS011;9205;52.032;4.314;2023-06-14T10:29:28;3.08;;;1.90;;
18159;SDS011;9205;52.032;4.314;2023-06-14T10:31:59;3.13;;;2.20;;
18159;SDS011;9205;52.032;4.314;2023-06-14T10:38:31;4.78;;;2.05;;
18159;SDS011;9205;52.032;4.314;2023-06-14T10:41:00;3.47;;;1.83;;
18159;SDS011;9205;52.032;4.314;2023-06-14T10:43:33;2.50;;;1.85;;
18159;SDS011;9205;52.032;4.314;2023-06-14T10:46:12;3.75;;;2.10;;
18159;SDS011;9205;52.032;4.314;2023-06-14T10:49:04;1.95;;;1.70;;
18159;SDS011;9205;52.032;4.314;2023-06-14T10:51:38;2.50;;;1.90;;
18159;SDS011;9205;52.032;4.314;2023-06-14T10:54:11;3.17;;;2.00;;
18159;SDS011;9205;52.032;4.314;2023-06-14T10:56:45;2.20;;;1.75;;
18159;SDS011;9205;52.032;4.314;2023-06-14T10:59:16;3.25;;;1.80;;
18159;SDS011;9205;52.032;4.314;2023-06-14T11:01:49;2.78;;;1.90;;
18159;SDS011;9205;52.032;4.314;2023-06-14T11:04:31;3.47;;;1.45;;
18159;SDS011;9205;52.032;4.314;2023-06-14T11:07:22;2.00;;;1.75;;
18159;SDS011;9205;52.032;4.314;2023-06-14T11:10:10;2.63;;;1.75;;
18159;SDS011;9205;52.032;4.314;2023-06-14T11:12:58;2.70;;;1.42;;
18159;SDS011;9205;52.032;4.314;2023-06-14T11:15:30;2.08;;;1.52;;
18159;SDS011;9205;52.032;4.314;2023-06-14T11:18:05;2.13;;;1.50;;
18159;SDS011;9205;52.032;4.314;2023-06-14T11:20:35;4.65;;;1.83;;
18159;SDS011;9205;52.032;4.314;2023-06-14T11:23:03;1.70;;;1.40;;
18159;SDS011;9205;52.032;4.314;2023-06-14T11:25:31;2.47;;;2.03;;
18159;SDS011;9205;52.032;4.314;2023-06-14T11:27:59;2.25;;;1.55;;
18159;SDS011;9205;52.032;4.314;2023-06-14T11:30:30;2.33;;;1.70;;
18159;SDS011;9205;52.032;4.314;2023-06-14T11:32:58;1.67;;;1.52;;
18159;SDS011;9205;52.032;4.314;2023-06-14T11:35:26;1.60;;;1.50;;
18159;SDS011;9205;52.032;4.314;2023-06-14T11:37:54;1.85;;;1.45;;
18159;SDS011;9205;52.032;4.314;2023-06-14T11:40:24;2.33;;;1.45;;
18159;SDS011;9205;52.032;4.314;2023-06-14T11:42:57;2.13;;;1.40;;
18159;SDS011;9205;52.032;4.314;2023-06-14T11:45:27;1.45;;;1.30;;
18159;SDS011;9205;52.032;4.314;2023-06-14T11:47:58;1.70;;;1.38;;
18159;SDS011;9205;52.032;4.314;2023-06-14T11:50:27;1.35;;;1.20;;
18159;SDS011;9205;52.032;4.314;2023-06-14T11:52:55;2.80;;;1.10;;
18159;SDS011;9205;52.032;4.314;2023-06-14T11:55:35;2.65;;;1.33;;
18159;SDS011;9205;52.032;4.314;2023-06-14T11:58:04;1.88;;;1.38;;
18159;SDS011;9205;52.032;4.314;2023-06-14T12:00:41;3.25;;;1.60;;
18159;SDS011;9205;52.032;4.314;2023-06-14T12:03:10;1.48;;;1.10;;
18159;SDS011;9205;52.032;4.314;2023-06-14T12:05:39;6.03;;;1.25;;
18159;SDS011;9205;52.032;4.314;2023-06-14T12:08:08;3.58;;;1.42;;
18159;SDS011;9205;52.032;4.314;2023-06-14T12:10:42;1.88;;;1.30;;
18159;SDS011;9205;52.032;4.314;2023-06-14T12:13:10;1.80;;;1.02;;
18159;SDS011;9205;52.032;4.314;2023-06-14T12:15:40;1.60;;;1.20;;
18159;SDS011;9205;52.032;4.314;2023-06-14T12:18:08;1.45;;;1.13;;
18159;SDS011;9205;52.032;4.314;2023-06-14T12:20:38;1.58;;;1.20;;
18159;SDS011;9205;52.032;4.314;2023-06-14T12:23:06;1.95;;;1.15;;
18159;SDS011;9205;52.032;4.314;2023-06-14T12:25:34;1.73;;;1.15;;
18159;SDS011;9205;52.032;4.314;2023-06-14T12:28:05;1.45;;;1.17;;
18159;SDS011;9205;52.032;4.314;2023-06-14T12:30:37;1.20;;;1.10;;
18159;SDS011;9205;52.032;4.314;2023-06-14T12:33:06;1.70;;;1.17;;
18159;SDS011;9205;52.032;4.314;2023-06-14T12:35:34;1.38;;;1.10;;
18159;SDS011;9205;52.032;4.314;2023-06-14T12:38:03;1.40;;;1.10;;
18159;SDS011;9205;52.032;4.314;2023-06-14T12:40:32;2.00;;;1.40;;
18159;SDS011;9205;52.032;4.314;2023-06-14T12:43:03;1.60;;;1.13;;
18159;SDS011;9205;52.032;4.314;2023-06-14T12:45:33;1.20;;;1.05;;
18159;SDS011;9205;52.032;4.314;2023-06-14T12:48:04;2.63;;;1.20;;
18159;SDS011;9205;52.032;4.314;2023-06-14T12:50:34;2.45;;;1.20;;
18159;SDS011;9205;52.032;4.314;2023-06-14T12:53:02;1.50;;;1.13;;
18159;SDS011;9205;52.032;4.314;2023-06-14T12:55:29;1.40;;;1.20;;
18159;SDS011;9205;52.032;4.314;2023-06-14T12:57:57;2.40;;;1.20;;
18159;SDS011;9205;52.032;4.314;2023-06-14T13:00:25;2.08;;;0.98;;
18159;SDS011;9205;52.032;4.314;2023-06-14T13:02:56;2.35;;;1.15;;
18159;SDS011;9205;52.032;4.314;2023-06-14T13:05:27;1.10;;;1.00;;
18159;SDS011;9205;52.032;4.314;2023-06-14T13:07:58;1.20;;;1.00;;
18159;SDS011;9205;52.032;4.314;2023-06-14T13:10:31;1.33;;;0.93;;
18159;SDS011;9205;52.032;4.314;2023-06-14T13:13:02;1.50;;;1.20;;
18159;SDS011;9205;52.032;4.314;2023-06-14T13:15:31;1.25;;;1.15;;
18159;SDS011;9205;52.032;4.314;2023-06-14T13:17:59;3.30;;;1.20;;
18159;SDS011;9205;52.032;4.314;2023-06-14T13:20:36;1.92;;;1.20;;
18159;SDS011;9205;52.032;4.314;2023-06-14T13:23:08;2.92;;;1.25;;
18159;SDS011;9205;52.032;4.314;2023-06-14T13:25:36;1.80;;;1.20;;
18159;SDS011;9205;52.032;4.314;2023-06-14T13:28:07;1.23;;;1.13;;
18159;SDS011;9205;52.032;4.314;2023-06-14T13:30:35;1.05;;;0.95;;
18159;SDS011;9205;52.032;4.314;2023-06-14T13:33:03;1.70;;;1.30;;
18159;SDS011;9205;52.032;4.314;2023-06-14T13:35:32;1.48;;;1.15;;
18159;SDS011;9205;52.032;4.314;2023-06-14T13:38:06;1.35;;;1.05;;
18159;SDS011;9205;52.032;4.314;2023-06-14T13:40:36;3.00;;;1.10;;
18159;SDS011;9205;52.032;4.314;2023-06-14T13:43:03;1.13;;;0.90;;
18159;SDS011;9205;52.032;4.314;2023-06-14T13:45:30;2.17;;;1.35;;
18159;SDS011;9205;52.032;4.314;2023-06-14T13:47:58;2.88;;;1.17;;
18159;SDS011;9205;52.032;4.314;2023-06-14T13:50:28;1.52;;;1.02;;
18159;SDS011;9205;52.032;4.314;2023-06-14T13:53:01;2.15;;;1.20;;
18159;SDS011;9205;52.032;4.314;2023-06-14T13:55:28;1.85;;;1.20;;
18159;SDS011;9205;52.032;4.314;2023-06-14T13:57:57;1.63;;;1.10;;
18159;SDS011;9205;52.032;4.314;2023-06-14T14:00:25;1.80;;;1.42;;
18159;SDS011;9205;52.032;4.314;2023-06-14T14:02:52;4.35;;;1.10;;
18159;SDS011;9205;52.032;4.314;2023-06-14T14:05:22;1.33;;;1.13;;
18159;SDS011;9205;52.032;4.314;2023-06-14T14:07:54;1.67;;;1.30;;
18159;SDS011;9205;52.032;4.314;2023-06-14T14:10:34;2.53;;;1.08;;
18159;SDS011;9205;52.032;4.314;2023-06-14T14:13:03;1.33;;;1.10;;
18159;SDS011;9205;52.032;4.314;2023-06-14T14:15:31;1.20;;;1.05;;
18159;SDS011;9205;52.032;4.314;2023-06-14T14:17:59;1.33;;;1.05;;
18159;SDS011;9205;52.032;4.314;2023-06-14T14:20:30;2.50;;;1.27;;
18159;SDS011;9205;52.032;4.314;2023-06-14T14:23:01;2.08;;;1.23;;
18159;SDS011;9205;52.032;4.314;2023-06-14T14:25:29;1.45;;;1.25;;
18159;SDS011;9205;52.032;4.314;2023-06-14T14:27:57;1.65;;;1.25;;
18159;SDS011;9205;52.032;4.314;2023-06-14T14:30:25;3.47;;;1.40;;
18159;SDS011;9205;52.032;4.314;2023-06-14T14:32:54;1.75;;;1.40;;
18159;SDS011;9205;52.032;4.314;2023-06-14T14:35:22;1.40;;;1.20;;
18159;SDS011;9205;52.032;4.314;2023-06-14T14:37:51;1.25;;;1.10;;
18159;SDS011;9205;52.032;4.314;2023-06-14T14:40:19;2.13;;;1.30;;
18159;SDS011;9205;52.032;4.314;2023-06-14T14:42:47;2.13;;;1.30;;
18159;SDS011;9205;52.032;4.314;2023-06-14T14:45:19;1.50;;;1.15;;
18159;SDS011;9205;52.032;4.314;2023-06-14T14:47:47;4.57;;;1.17;;
18159;SDS011;9205;52.032;4.314;2023-06-14T14:50:15;2.05;;;1.15;;
18159;SDS011;9205;52.032;4.314;2023-06-14T14:52:43;1.80;;;1.20;;
18159;SDS011;9205;52.032;4.314;2023-06-14T14:55:11;6.00;;;1.17;;
18159;SDS011;9205;52.032;4.314;2023-06-14T14:57:39;3.60;;;1.30;;
18159;SDS011;9205;52.032;4.314;2023-06-14T15:00:09;3.78;;;1.10;;
18159;SDS011;9205;52.032;4.314;2023-06-14T15:02:41;1.67;;;1.08;;
18159;SDS011;9205;52.032;4.314;2023-06-14T15:05:09;5.35;;;1.25;;
18159;SDS011;9205;52.032;4.314;2023-06-14T15:07:37;2.05;;;1.30;;
18159;SDS011;9205;52.032;4.314;2023-06-14T15:10:06;4.55;;;1.48;;
18159;SDS011;9205;52.032;4.314;2023-06-14T15:12:36;1.88;;;1.02;;
18159;SDS011;9205;52.032;4.314;2023-06-14T15:15:04;2.38;;;1.30;;
18159;SDS011;9205;52.032;4.314;2023-06-14T15:17:34;2.80;;;1.40;;
18159;SDS011;9205;52.032;4.314;2023-06-14T15:20:07;1.80;;;1.23;;
18159;SDS011;9205;52.032;4.314;2023-06-14T15:22:38;1.35;;;1.10;;